Terminal Aerodrome Forecast
Issued by NWS

Current Version | Previous Version | Graphics & Text | Print | Product List | Glossary On
Versions: 1 2 3 4 5 6 7 8 9 10 11 12 13 14 15 16 17 18 19 20 21
038
FTUS41 KILN 231121
TAFLUK
TAF
KLUK 231121Z 2312/2412 VRB02KT P6SM OVC250
      TEMPO 2312/2313 1SM BR
     FM231800 11004KT P6SM BKN250
     FM240200 VRB02KT P6SM BKN050
     FM241000 VRB03KT P6SM VCSH OVC050=

USA.gov is the U.S. government's official web portal to all federal, state and local government web resources and services.